createdAt,value
2018-11-20T00:02:45.603Z,17.73
2018-11-20T00:05:54.059Z,14.40
2018-11-20T00:09:02.008Z,14.40
2018-11-20T00:12:10.377Z,17.57
2018-11-20T00:15:18.867Z,19.50
2018-11-20T00:18:27.294Z,20.53
2018-11-20T00:21:33.438Z,13.80
2018-11-20T00:24:41.952Z,20.43
2018-11-20T00:27:50.380Z,15.90
2018-11-20T00:30:58.849Z,19.13
2018-11-20T00:34:07.279Z,15.43
2018-11-20T00:37:15.753Z,13.10
2018-11-20T00:40:24.710Z,17.37
2018-11-20T00:43:27.168Z,16.53
2018-11-20T00:46:35.627Z,18.23
2018-11-20T00:49:44.058Z,16.87
2018-11-20T00:52:52.559Z,15.90
2018-11-20T00:56:29.433Z,20.27
2018-11-20T00:59:27.269Z,18.80
2018-11-20T01:02:35.749Z,17.53
2018-11-20T01:05:44.175Z,16.60
2018-11-20T01:08:52.641Z,16.70
2018-11-20T01:12:01.083Z,20.70
2018-11-20T01:15:09.548Z,18.17
2018-11-20T01:18:17.976Z,19.00
2018-11-20T01:21:26.472Z,19.20
2018-11-20T01:24:34.950Z,18.50
2018-11-20T01:27:43.417Z,14.00
2018-11-20T01:30:51.892Z,13.07
2018-11-20T01:34:00.329Z,18.87
2018-11-20T01:37:08.826Z,16.23
2018-11-20T01:40:17.304Z,16.70
2018-11-20T01:43:25.741Z,15.20
2018-11-20T01:46:34.203Z,18.60
2018-11-20T01:49:42.631Z,13.20
2018-11-20T01:52:51.127Z,17.77
2018-11-20T01:55:59.567Z,16.90
2018-11-20T01:59:08.034Z,14.93
2018-11-20T02:02:16.460Z,15.27
2018-11-20T02:05:26.125Z,18.73
2018-11-20T02:08:34.577Z,15.30
2018-11-20T02:11:43.038Z,15.50
2018-11-20T02:14:42.288Z,18.27
2018-11-20T02:17:52.155Z,17.87
2018-11-20T02:21:00.556Z,14.87
2018-11-20T02:24:06.842Z,21.07
2018-11-20T02:27:15.317Z,17.63
2018-11-20T02:30:24.114Z,16.80
2018-11-20T02:33:32.538Z,14.07
2018-11-20T02:36:41.013Z,16.83
2018-11-20T02:39:49.470Z,15.27
2018-11-20T02:42:58.046Z,15.13
2018-11-20T02:46:06.499Z,18.47
2018-11-20T02:49:14.964Z,18.93
2018-11-20T02:52:23.442Z,20.43
2018-11-20T02:55:31.922Z,15.90
2018-11-20T02:58:29.767Z,16.70
2018-11-20T03:01:38.193Z,15.07
2018-11-20T03:04:46.665Z,18.07
2018-11-20T03:07:55.123Z,20.87
2018-11-20T03:11:03.563Z,16.80
2018-11-20T03:14:12.037Z,15.17
2018-11-20T03:17:19.678Z,15.60
2018-11-20T03:20:28.972Z,15.27
2018-11-20T03:23:37.432Z,16.17
2018-11-20T03:26:45.911Z,12.53
2018-11-20T03:30:35.259Z,16.40
2018-11-20T03:33:43.698Z,18.00
2018-11-20T03:36:51.676Z,18.80
2018-11-20T03:40:00.078Z,22.27
2018-11-20T03:43:08.537Z,17.47
2018-11-20T03:46:17.007Z,15.33
2018-11-20T03:49:25.484Z,20.30
2018-11-20T03:52:33.897Z,19.63
2018-11-20T03:55:42.359Z,18.10
2018-11-20T03:58:50.780Z,20.27
2018-11-20T04:01:59.240Z,12.73
2018-11-20T04:05:07.700Z,18.17
2018-11-20T04:08:16.154Z,18.57
2018-11-20T04:11:24.619Z,16.40
2018-11-20T04:14:33.096Z,13.93
2018-11-20T04:17:41.604Z,21.20
2018-11-20T04:20:50.008Z,17.80
2018-11-20T04:23:58.445Z,18.87
2018-11-20T04:27:06.902Z,16.93
2018-11-20T04:30:53.381Z,18.23
2018-11-20T04:34:01.886Z,15.03
2018-11-20T04:37:29.350Z,18.23
2018-11-20T04:40:37.824Z,18.43
2018-11-20T04:43:46.244Z,14.63
2018-11-20T04:46:43.706Z,18.27
2018-11-20T04:49:52.155Z,15.03
2018-11-20T04:53:00.627Z,13.97
2018-11-20T04:56:09.110Z,15.63
2018-11-20T04:59:17.571Z,19.30
2018-11-20T05:02:26.050Z,15.77
2018-11-20T05:05:34.488Z,17.63
2018-11-20T05:08:42.964Z,18.57
2018-11-20T05:11:49.930Z,17.63
2018-11-20T05:14:58.361Z,14.80
2018-11-20T05:18:06.846Z,19.47
2018-11-20T05:21:15.287Z,18.13
2018-11-20T05:24:23.893Z,13.67
2018-11-20T05:27:32.358Z,16.73
2018-11-20T05:30:30.588Z,17.80
2018-11-20T05:33:39.072Z,16.23
2018-11-20T05:36:47.555Z,16.57
2018-11-20T05:39:56.007Z,13.10
2018-11-20T05:43:04.492Z,14.10
2018-11-20T05:46:02.242Z,17.00
2018-11-20T05:49:10.677Z,17.70
2018-11-20T05:52:19.155Z,16.20
2018-11-20T05:55:27.589Z,14.97
2018-11-20T05:58:36.064Z,18.53
2018-11-20T06:01:44.537Z,20.63
2018-11-20T06:04:52.963Z,16.07
2018-11-20T06:08:01.481Z,19.50
2018-11-20T06:11:09.970Z,15.97
2018-11-20T06:14:18.453Z,16.20
2018-11-20T06:17:26.908Z,17.60
2018-11-20T06:20:30.296Z,15.60
2018-11-20T06:23:38.920Z,17.43
2018-11-20T06:26:47.395Z,16.47
2018-11-20T06:29:54.703Z,15.53
2018-11-20T06:32:56.400Z,17.60
2018-11-20T06:36:04.833Z,17.83
2018-11-20T06:39:13.321Z,15.00
2018-11-20T06:42:21.800Z,19.83
2018-11-20T06:45:30.271Z,18.10
2018-11-20T06:48:57.967Z,12.80
2018-11-20T06:52:06.411Z,16.60
2018-11-20T06:55:15.007Z,16.13
2018-11-20T06:58:15.548Z,20.87
2018-11-20T07:04:24.796Z,14.50
2018-11-20T07:07:33.342Z,12.87
2018-11-20T07:10:41.728Z,14.83
2018-11-20T07:13:51.303Z,15.77
2018-11-20T07:16:58.261Z,14.10
2018-11-20T07:20:06.695Z,17.07
2018-11-20T07:23:15.173Z,16.60
2018-11-20T07:26:23.630Z,10.33
2018-11-20T07:29:32.174Z,12.47
2018-11-20T07:32:40.566Z,15.63
2018-11-20T07:35:49.150Z,13.43
2018-11-20T07:38:57.583Z,13.30
2018-11-20T07:42:06.069Z,13.60
2018-11-20T07:45:10.026Z,16.97
2018-11-20T07:48:18.489Z,18.03
2018-11-20T07:51:26.952Z,17.40
2018-11-20T07:54:35.444Z,16.37
2018-11-20T07:57:43.879Z,13.80
2018-11-20T08:00:52.345Z,17.80
2018-11-20T08:03:59.482Z,17.27
2018-11-20T08:06:58.931Z,17.67
2018-11-20T08:10:07.393Z,16.73
2018-11-20T08:13:15.887Z,18.53
2018-11-20T08:16:24.444Z,17.27
2018-11-20T08:19:32.950Z,16.70
2018-11-20T08:22:41.394Z,16.70
2018-11-20T08:25:49.979Z,18.00
2018-11-20T08:28:58.318Z,18.47
2018-11-20T08:32:06.807Z,14.57
2018-11-20T08:35:15.357Z,15.97
2018-11-20T08:38:23.769Z,14.90
2018-11-20T08:41:32.218Z,15.93
2018-11-20T08:44:40.687Z,10.40
2018-11-20T08:47:49.239Z,16.10
2018-11-20T08:50:57.585Z,15.23
2018-11-20T08:54:06.024Z,15.63
2018-11-20T08:57:14.500Z,17.40
2018-11-20T09:00:22.925Z,14.07
2018-11-20T09:03:31.409Z,17.70
2018-11-20T09:06:39.827Z,13.53
2018-11-20T09:09:48.348Z,15.03
2018-11-20T09:12:56.753Z,14.90
2018-11-20T09:16:05.214Z,18.53
2018-11-20T09:19:13.655Z,14.30
2018-11-20T09:22:22.125Z,16.23
2018-11-20T09:25:30.609Z,18.70
2018-11-20T09:28:39.042Z,16.40
2018-11-20T09:31:47.483Z,13.97
2018-11-20T09:34:56.127Z,18.47
2018-11-20T09:38:04.427Z,16.40
2018-11-20T09:41:12.895Z,14.77
2018-11-20T09:44:36.927Z,12.67
2018-11-20T09:47:45.407Z,16.00
2018-11-20T09:50:54.350Z,15.60
2018-11-20T09:54:02.804Z,16.27
2018-11-20T09:57:11.250Z,11.77
2018-11-20T10:00:19.740Z,13.47
2018-11-20T10:03:18.593Z,15.43
2018-11-20T10:06:27.073Z,16.37
2018-11-20T10:09:54.534Z,15.60
2018-11-20T10:13:03.166Z,13.97
2018-11-20T10:16:12.807Z,18.83
2018-11-20T10:19:21.295Z,14.40
2018-11-20T10:22:29.782Z,14.90
2018-11-20T10:25:38.344Z,14.40
2018-11-20T10:28:46.709Z,15.37
2018-11-20T10:31:56.495Z,15.80
2018-11-20T10:35:04.960Z,14.40
2018-11-20T10:38:13.388Z,13.57
2018-11-20T10:41:24.356Z,17.37
2018-11-20T10:44:32.852Z,14.00
2018-11-20T10:47:41.304Z,13.10
2018-11-20T10:50:49.742Z,10.83
2018-11-20T10:53:58.212Z,13.93
2018-11-20T10:57:06.654Z,14.50
2018-11-20T11:00:00.059Z,14.93
2018-11-20T11:03:08.487Z,12.07
2018-11-20T11:06:17.025Z,15.30
2018-11-20T11:09:30.013Z,12.83
2018-11-20T11:12:38.527Z,13.43
2018-11-20T11:15:46.936Z,11.07
2018-11-20T11:18:55.423Z,15.87
2018-11-20T11:22:03.905Z,13.00
2018-11-20T11:25:12.331Z,15.73
2018-11-20T11:28:20.821Z,13.07
2018-11-20T11:31:23.491Z,13.80
2018-11-20T11:34:23.703Z,11.60
2018-11-20T11:37:32.167Z,15.30
2018-11-20T11:40:40.599Z,12.63
2018-11-20T11:43:49.083Z,15.60
2018-11-20T11:46:57.533Z,15.97
2018-11-20T11:50:05.995Z,13.80
2018-11-20T11:53:14.432Z,11.03
2018-11-20T11:56:22.871Z,16.20
2018-11-20T11:59:31.362Z,11.07
2018-11-20T12:05:47.391Z,14.00
2018-11-20T12:08:55.827Z,13.87
2018-11-20T12:12:04.297Z,16.00
2018-11-20T12:15:12.724Z,18.40
2018-11-20T12:18:21.233Z,16.20
2018-11-20T12:21:29.719Z,15.67
2018-11-20T12:24:38.159Z,13.77
2018-11-20T12:27:46.699Z,17.20
2018-11-20T12:30:55.060Z,11.83
2018-11-20T12:34:02.621Z,13.20
2018-11-20T12:37:11.054Z,16.33
2018-11-20T12:40:19.539Z,16.73
2018-11-20T12:43:27.985Z,16.57
2018-11-20T12:46:28.102Z,17.93
2018-11-20T12:49:36.530Z,14.87
2018-11-20T12:52:44.999Z,14.60
2018-11-20T12:55:54.877Z,16.07
2018-11-20T12:59:01.945Z,14.23
2018-11-20T13:02:10.419Z,15.57
2018-11-20T13:05:18.893Z,18.07
2018-11-20T13:08:30.987Z,14.20
2018-11-20T13:11:35.773Z,16.40
2018-11-20T13:14:44.260Z,15.27
2018-11-20T13:17:52.731Z,17.23
2018-11-20T13:21:01.196Z,14.67
2018-11-20T13:24:11.623Z,19.13
2018-11-20T13:27:18.096Z,17.00
2018-11-20T13:30:28.358Z,13.47
2018-11-20T13:33:36.797Z,12.90
2018-11-20T13:36:45.261Z,14.37
2018-11-20T13:39:48.254Z,18.00
2018-11-20T13:42:59.154Z,15.00
2018-11-20T13:46:07.576Z,14.60
2018-11-20T13:49:16.028Z,13.33
2018-11-20T13:52:17.408Z,18.30
2018-11-20T13:55:27.272Z,15.50
2018-11-20T13:58:34.437Z,17.87
2018-11-20T14:01:42.906Z,11.30
2018-11-20T14:04:51.337Z,15.40
2018-11-20T14:07:59.809Z,19.17
2018-11-20T14:11:00.575Z,16.00
2018-11-20T14:13:59.429Z,17.07
2018-11-20T14:17:07.899Z,14.23
2018-11-20T14:20:16.334Z,18.77
2018-11-20T14:23:25.024Z,18.87
2018-11-20T14:26:33.497Z,18.07
2018-11-20T14:29:35.911Z,16.27
2018-11-20T14:32:44.377Z,18.27
2018-11-20T14:35:52.807Z,21.33
2018-11-20T14:39:01.285Z,19.17
2018-11-20T14:42:09.712Z,18.77
2018-11-20T14:45:18.179Z,19.23
2018-11-20T14:48:26.662Z,18.83
2018-11-20T14:51:35.108Z,18.67
2018-11-20T14:54:43.445Z,19.00
2018-11-20T14:57:51.906Z,21.73
2018-11-20T15:01:00.373Z,18.50
2018-11-20T15:04:08.842Z,11.53
2018-11-20T15:07:17.299Z,19.40
2018-11-20T15:10:26.428Z,19.20
2018-11-20T15:13:34.899Z,18.90
2018-11-20T15:16:43.404Z,18.00
2018-11-20T15:19:51.858Z,19.33
2018-11-20T15:23:00.349Z,16.77
2018-11-20T15:26:08.832Z,17.20
2018-11-20T15:29:17.321Z,19.37
2018-11-20T15:32:25.834Z,19.20
2018-11-20T15:35:34.310Z,13.97
2018-11-20T15:38:31.973Z,12.03
2018-11-20T15:41:40.435Z,13.90
2018-11-20T15:44:48.895Z,13.50
2018-11-20T15:47:57.368Z,13.27
2018-11-20T15:51:05.863Z,14.30
2018-11-20T15:54:14.363Z,15.60
2018-11-20T15:57:22.839Z,16.70
2018-11-20T16:00:31.334Z,12.67
2018-11-20T16:03:39.841Z,13.73
2018-11-20T16:06:48.287Z,15.70
2018-11-20T16:09:56.769Z,15.93
2018-11-20T16:13:05.252Z,17.53
2018-11-20T16:16:05.991Z,16.13
2018-11-20T16:19:14.435Z,16.27
2018-11-20T16:22:22.901Z,17.13
2018-11-20T16:25:31.317Z,14.30
2018-11-20T16:28:39.789Z,16.07
2018-11-20T16:31:39.230Z,14.23
2018-11-20T16:34:47.704Z,17.90
2018-11-20T16:37:56.147Z,21.13
2018-11-20T16:41:04.635Z,15.57
2018-11-20T16:44:13.064Z,18.40
2018-11-20T16:47:21.546Z,18.77
2018-11-20T16:50:29.977Z,16.17
2018-11-20T16:53:38.459Z,17.83
2018-11-20T16:56:46.942Z,19.13
2018-11-20T16:59:43.411Z,13.97
2018-11-20T17:02:48.367Z,18.30
2018-11-20T17:05:46.556Z,16.90
2018-11-20T17:08:55.069Z,15.20
2018-11-20T17:12:03.531Z,13.80
2018-11-20T17:15:12.006Z,15.30
2018-11-20T17:18:20.487Z,16.67
2018-11-20T17:21:22.556Z,18.07
2018-11-20T17:24:31.028Z,17.70
2018-11-20T17:27:39.473Z,17.17
2018-11-20T17:30:45.804Z,15.63
2018-11-20T17:33:54.249Z,19.03
2018-11-20T17:37:02.722Z,16.20
2018-11-20T17:40:11.199Z,14.77
2018-11-20T17:43:19.638Z,16.90
2018-11-20T17:46:28.122Z,20.00
2018-11-20T17:49:36.565Z,19.73
2018-11-20T17:52:45.086Z,16.63
2018-11-20T17:55:53.557Z,16.20
2018-11-20T17:59:02.022Z,19.90
2018-11-20T18:02:10.492Z,22.27
2018-11-20T18:05:18.960Z,21.13
2018-11-20T18:08:27.441Z,18.07
2018-11-20T18:11:35.881Z,18.57
2018-11-20T18:14:44.334Z,21.13
2018-11-20T18:17:52.818Z,20.97
2018-11-20T18:21:01.291Z,22.97
2018-11-20T18:24:09.777Z,20.40
2018-11-20T18:27:19.069Z,19.90
2018-11-20T18:30:28.868Z,15.97
2018-11-20T18:33:37.337Z,23.00
2018-11-20T18:36:37.079Z,21.70
2018-11-20T18:39:45.537Z,22.03
2018-11-20T18:42:54.009Z,19.67
2018-11-20T18:46:02.441Z,21.50
2018-11-20T18:49:11.832Z,16.93
2018-11-20T18:52:19.369Z,22.60
2018-11-20T18:55:27.848Z,18.90
2018-11-20T18:58:36.929Z,21.20
2018-11-20T19:01:44.766Z,16.93
2018-11-20T19:04:42.102Z,24.00
2018-11-20T19:07:50.609Z,25.00
2018-11-20T19:10:59.103Z,18.40
2018-11-20T19:14:07.530Z,21.20
2018-11-20T19:17:16.002Z,24.50
2018-11-20T19:20:24.543Z,22.17
2018-11-20T19:23:33.024Z,17.00
2018-11-20T19:26:41.459Z,21.83
2018-11-20T19:29:49.973Z,18.03
2018-11-20T19:32:58.414Z,28.20
2018-11-20T19:36:07.210Z,22.37
2018-11-20T19:39:15.767Z,23.80
2018-11-20T19:42:24.250Z,18.03
2018-11-20T19:45:32.690Z,18.60
2018-11-20T19:48:41.180Z,30.10
2018-11-20T19:51:49.995Z,24.30
2018-11-20T19:54:58.509Z,20.70
2018-11-20T20:01:06.723Z,23.30
2018-11-20T20:04:15.161Z,20.07
2018-11-20T20:07:23.681Z,24.77
2018-11-20T20:10:32.181Z,20.10
2018-11-20T20:13:40.617Z,24.40
2018-11-20T20:16:49.079Z,29.30
2018-11-20T20:19:57.546Z,20.83
2018-11-20T20:23:06.095Z,27.80
2018-11-20T20:26:15.607Z,19.43
2018-11-20T20:29:24.168Z,25.07
2018-11-20T20:32:32.667Z,26.33
2018-11-20T20:35:41.165Z,19.67
2018-11-20T20:38:49.611Z,23.10
2018-11-20T20:41:58.360Z,27.17
2018-11-20T20:45:06.789Z,30.13
2018-11-20T20:48:15.331Z,20.20
2018-11-20T20:51:23.779Z,24.23
2018-11-20T20:54:32.272Z,27.77
2018-11-20T20:57:40.761Z,27.53
2018-11-20T21:00:50.328Z,28.40
2018-11-20T21:04:00.449Z,22.10
2018-11-20T21:07:08.945Z,27.17
2018-11-20T21:10:17.658Z,24.50
2018-11-20T21:13:26.142Z,22.83
2018-11-20T21:16:35.383Z,28.93
2018-11-20T21:19:43.891Z,30.00
2018-11-20T21:22:52.683Z,23.40
2018-11-20T21:26:01.165Z,23.00
2018-11-20T21:29:09.620Z,28.90
2018-11-20T21:35:20.401Z,29.00
2018-11-20T21:38:29.109Z,24.90
2018-11-20T21:41:34.493Z,24.03
2018-11-20T21:44:42.982Z,25.53
2018-11-20T21:48:10.426Z,25.90
2018-11-20T21:51:18.904Z,26.60
2018-11-20T21:54:26.389Z,28.00
2018-11-20T21:57:34.983Z,27.90
2018-11-20T22:01:04.976Z,27.43
2018-11-20T22:04:32.681Z,20.73
2018-11-20T22:07:41.151Z,26.60
2018-11-20T22:10:49.634Z,26.70
2018-11-20T22:13:58.081Z,23.63
2018-11-20T22:17:06.555Z,24.33
2018-11-20T22:20:14.993Z,26.73
2018-11-20T22:23:23.538Z,29.77
2018-11-20T22:26:20.723Z,29.77
2018-11-20T22:29:29.208Z,26.10
2018-11-20T22:32:37.642Z,26.27
2018-11-20T22:35:46.117Z,25.63
2018-11-20T22:38:54.550Z,26.20
2018-11-20T22:42:00.314Z,28.33
2018-11-20T22:45:03.654Z,28.03
2018-11-20T22:48:12.123Z,28.37
2018-11-20T22:51:20.567Z,29.03
2018-11-20T22:54:29.043Z,25.10
2018-11-20T22:57:25.129Z,28.83
2018-11-20T23:00:33.596Z,26.77
2018-11-20T23:03:42.056Z,24.73
2018-11-20T23:06:48.791Z,27.70
2018-11-20T23:09:38.564Z,29.37
2018-11-20T23:12:28.371Z,25.50
2018-11-20T23:15:18.161Z,28.80
2018-11-20T23:18:07.972Z,27.20
2018-11-20T23:27:11.035Z,27.30
2018-11-20T23:30:00.997Z,23.67
2018-11-20T23:32:50.773Z,24.97
2018-11-20T23:35:40.581Z,26.87
2018-11-20T23:38:30.351Z,24.60
2018-11-20T23:41:20.153Z,27.47
2018-11-20T23:44:09.928Z,26.30
2018-11-20T23:46:59.748Z,24.37
2018-11-20T23:49:49.529Z,27.37
2018-11-20T23:52:39.558Z,24.97
2018-11-20T23:55:29.315Z,25.90
2018-11-20T23:58:19.126Z,27.30
